Česky Dansk Deutsch English Español Suomi Français Magyar Italiano Nederlands norsk Polski Português svenska Türkçe

 

Het Weer

Jeddah King Abdul Aziz International Airport (Saudi-Arabië)

01:00, 28 juli 2016 (GMT)

NWNNE
WE
SWSSE
Home            
Jeddah King Abdul Aziz International Airport Jeddah Makkah Taif Yenbo Al Baha Port Sudan Madinah Port Sudan International Bisha Abha Khamis Mushait Wejh Dawadmi Wadi Al Dawasser Airport Gizan Massawa Hail Gassim Agordat Asswan Atbara Sa'Ada / Sadah

Om een weerknop op uw website of weblog te plaatsen, copieer onderstaande code en plak die in uw pagina. In het eerste vakje staat HTML-code, in het tweede vakje UBB-code.


Add to Google

Details

Wind speed:2 bf, 6 kn, 3.1 m/s, 6.9 miles/h, 11.1 km/h
Wind direction:NNW, 330°
Visibility:Greater than 10000 m, 10 km, 32800 ft, 6.2 miles
Clouds:CAVOC
Temperature:30°C, 86°F
Gefühlte Temperatur:33°C, 92°F
Dew-point:22°C, 72°F
Atmospheric pressure:998 hPa, 748.6 mmHg, 29.47 inHg, 0.985 atm
Relative humidity:62.3 %
METAR:OEJN 280100Z 33006KT CAVOK 30/22 Q0998 NOSIG

Snelkoppelingen

Actuele weersinformatie van de hele wereld. Voeg locaties toe met het plus (+) symbool. Deze snelkoppelingen kunnen worden toegevoegd aan Google.

Lid van de Technetium groep

website free tracking
StatCounter NetStat W3C Validator

14-04-2021 09:11:31
astro.technetium.be money.technetium.be phote.technetium.be tafeltennistafel.technetium.be www.ligfiets.net